sensor_id;sensor_type;location;lat;lon;timestamp;P1;durP1;ratioP1;P2;durP2;ratioP2
44987;SDS011;35735;52.226;21.254;2023-04-15T00:03:17;9.15;;;7.43;;
44987;SDS011;35735;52.226;21.254;2023-04-15T00:08:17;8.57;;;7.65;;
44987;SDS011;35735;52.226;21.254;2023-04-15T00:13:18;9.38;;;7.37;;
44987;SDS011;35735;52.226;21.254;2023-04-15T00:18:19;11.10;;;7.82;;
44987;SDS011;35735;52.226;21.254;2023-04-15T00:23:19;11.90;;;8.50;;
44987;SDS011;35735;52.226;21.254;2023-04-15T00:28:20;8.95;;;7.65;;
44987;SDS011;35735;52.226;21.254;2023-04-15T00:33:20;11.00;;;8.02;;
44987;SDS011;35735;52.226;21.254;2023-04-15T00:38:21;9.52;;;7.85;;
44987;SDS011;35735;52.226;21.254;2023-04-15T00:43:21;9.40;;;7.82;;
44987;SDS011;35735;52.226;21.254;2023-04-15T00:48:22;9.27;;;7.70;;
44987;SDS011;35735;52.226;21.254;2023-04-15T00:53:23;10.40;;;8.38;;
44987;SDS011;35735;52.226;21.254;2023-04-15T00:58:24;9.73;;;7.82;;
44987;SDS011;35735;52.226;21.254;2023-04-15T01:03:25;10.65;;;7.95;;
44987;SDS011;35735;52.226;21.254;2023-04-15T01:08:27;8.60;;;7.68;;
44987;SDS011;35735;52.226;21.254;2023-04-15T01:13:28;10.23;;;8.35;;
44987;SDS011;35735;52.226;21.254;2023-04-15T01:18:29;8.52;;;7.57;;
44987;SDS011;35735;52.226;21.254;2023-04-15T01:23:31;10.68;;;9.02;;
44987;SDS011;35735;52.226;21.254;2023-04-15T01:28:35;11.23;;;8.35;;
44987;SDS011;35735;52.226;21.254;2023-04-15T01:33:36;11.73;;;8.63;;
44987;SDS011;35735;52.226;21.254;2023-04-15T01:38:37;9.70;;;8.68;;
44987;SDS011;35735;52.226;21.254;2023-04-15T01:43:38;10.13;;;9.00;;
44987;SDS011;35735;52.226;21.254;2023-04-15T01:48:39;13.10;;;9.40;;
44987;SDS011;35735;52.226;21.254;2023-04-15T01:53:39;10.45;;;9.35;;
44987;SDS011;35735;52.226;21.254;2023-04-15T01:58:40;11.48;;;9.20;;
44987;SDS011;35735;52.226;21.254;2023-04-15T02:03:40;10.48;;;9.07;;
44987;SDS011;35735;52.226;21.254;2023-04-15T02:08:41;10.73;;;9.45;;
44987;SDS011;35735;52.226;21.254;2023-04-15T02:13:42;11.27;;;8.73;;
44987;SDS011;35735;52.226;21.254;2023-04-15T02:18:43;11.32;;;9.63;;
44987;SDS011;35735;52.226;21.254;2023-04-15T02:23:45;10.48;;;9.23;;
44987;SDS011;35735;52.226;21.254;2023-04-15T02:28:45;11.30;;;9.95;;
44987;SDS011;35735;52.226;21.254;2023-04-15T02:33:46;11.90;;;9.70;;
44987;SDS011;35735;52.226;21.254;2023-04-15T02:38:47;11.40;;;9.63;;
44987;SDS011;35735;52.226;21.254;2023-04-15T02:43:47;11.12;;;9.40;;
44987;SDS011;35735;52.226;21.254;2023-04-15T02:48:48;10.55;;;9.00;;
44987;SDS011;35735;52.226;21.254;2023-04-15T02:53:49;10.65;;;9.52;;
44987;SDS011;35735;52.226;21.254;2023-04-15T02:58:49;11.15;;;9.93;;
44987;SDS011;35735;52.226;21.254;2023-04-15T03:03:50;10.77;;;9.35;;
44987;SDS011;35735;52.226;21.254;2023-04-15T03:08:51;12.05;;;9.70;;
44987;SDS011;35735;52.226;21.254;2023-04-15T03:13:51;12.20;;;9.77;;
44987;SDS011;35735;52.226;21.254;2023-04-15T03:18:52;11.85;;;8.82;;
44987;SDS011;35735;52.226;21.254;2023-04-15T03:23:52;12.57;;;9.93;;
44987;SDS011;35735;52.226;21.254;2023-04-15T03:28:53;11.25;;;9.45;;
44987;SDS011;35735;52.226;21.254;2023-04-15T03:33:54;10.98;;;9.05;;
44987;SDS011;35735;52.226;21.254;2023-04-15T03:38:54;9.80;;;8.80;;
44987;SDS011;35735;52.226;21.254;2023-04-15T03:43:55;11.65;;;8.65;;
44987;SDS011;35735;52.226;21.254;2023-04-15T03:48:56;10.70;;;8.80;;
44987;SDS011;35735;52.226;21.254;2023-04-15T03:53:57;10.60;;;8.68;;
44987;SDS011;35735;52.226;21.254;2023-04-15T03:58:57;11.90;;;9.10;;
44987;SDS011;35735;52.226;21.254;2023-04-15T04:03:58;10.60;;;8.80;;
44987;SDS011;35735;52.226;21.254;2023-04-15T04:08:58;10.38;;;9.27;;
44987;SDS011;35735;52.226;21.254;2023-04-15T04:13:59;10.45;;;9.30;;
44987;SDS011;35735;52.226;21.254;2023-04-15T04:18:59;9.93;;;8.93;;
44987;SDS011;35735;52.226;21.254;2023-04-15T04:24:00;10.77;;;8.90;;
44987;SDS011;35735;52.226;21.254;2023-04-15T04:29:01;12.82;;;10.05;;
44987;SDS011;35735;52.226;21.254;2023-04-15T04:34:02;9.82;;;8.82;;
44987;SDS011;35735;52.226;21.254;2023-04-15T04:39:03;11.32;;;8.95;;
44987;SDS011;35735;52.226;21.254;2023-04-15T04:44:04;10.98;;;8.80;;
44987;SDS011;35735;52.226;21.254;2023-04-15T04:49:04;10.13;;;8.80;;
44987;SDS011;35735;52.226;21.254;2023-04-15T04:54:05;11.23;;;9.35;;
44987;SDS011;35735;52.226;21.254;2023-04-15T04:59:06;11.45;;;8.55;;
44987;SDS011;35735;52.226;21.254;2023-04-15T05:04:06;9.00;;;7.85;;
44987;SDS011;35735;52.226;21.254;2023-04-15T05:09:07;12.85;;;8.95;;
44987;SDS011;35735;52.226;21.254;2023-04-15T05:14:08;11.10;;;7.93;;
44987;SDS011;35735;52.226;21.254;2023-04-15T05:19:08;9.88;;;8.23;;
44987;SDS011;35735;52.226;21.254;2023-04-15T05:24:09;10.27;;;8.32;;
44987;SDS011;35735;52.226;21.254;2023-04-15T05:29:09;8.98;;;8.07;;
44987;SDS011;35735;52.226;21.254;2023-04-15T05:34:10;7.90;;;7.10;;
44987;SDS011;35735;52.226;21.254;2023-04-15T05:39:10;9.98;;;8.15;;
44987;SDS011;35735;52.226;21.254;2023-04-15T05:44:11;8.43;;;7.50;;
44987;SDS011;35735;52.226;21.254;2023-04-15T05:49:12;9.40;;;8.00;;
44987;SDS011;35735;52.226;21.254;2023-04-15T05:54:12;10.85;;;8.30;;
44987;SDS011;35735;52.226;21.254;2023-04-15T05:59:13;9.52;;;7.22;;
44987;SDS011;35735;52.226;21.254;2023-04-15T06:04:14;8.77;;;7.35;;
44987;SDS011;35735;52.226;21.254;2023-04-15T06:09:15;8.77;;;6.93;;
44987;SDS011;35735;52.226;21.254;2023-04-15T06:14:15;10.85;;;8.35;;
44987;SDS011;35735;52.226;21.254;2023-04-15T06:19:16;10.52;;;7.80;;
44987;SDS011;35735;52.226;21.254;2023-04-15T06:24:16;10.27;;;7.90;;
44987;SDS011;35735;52.226;21.254;2023-04-15T06:29:17;8.52;;;7.28;;
44987;SDS011;35735;52.226;21.254;2023-04-15T06:34:17;9.07;;;7.43;;
44987;SDS011;35735;52.226;21.254;2023-04-15T06:39:18;9.13;;;7.18;;
44987;SDS011;35735;52.226;21.254;2023-04-15T06:44:19;7.87;;;7.07;;
44987;SDS011;35735;52.226;21.254;2023-04-15T06:49:19;6.95;;;6.20;;
44987;SDS011;35735;52.226;21.254;2023-04-15T06:54:20;7.78;;;6.45;;
44987;SDS011;35735;52.226;21.254;2023-04-15T06:59:20;7.87;;;6.65;;
44987;SDS011;35735;52.226;21.254;2023-04-15T07:04:21;7.97;;;6.43;;
44987;SDS011;35735;52.226;21.254;2023-04-15T07:09:22;7.22;;;6.35;;
44987;SDS011;35735;52.226;21.254;2023-04-15T07:14:23;6.87;;;6.18;;
44987;SDS011;35735;52.226;21.254;2023-04-15T07:19:23;6.82;;;6.12;;
44987;SDS011;35735;52.226;21.254;2023-04-15T07:24:24;5.72;;;5.22;;
44987;SDS011;35735;52.226;21.254;2023-04-15T07:29:24;5.80;;;5.10;;
44987;SDS011;35735;52.226;21.254;2023-04-15T07:34:25;5.87;;;5.28;;
44987;SDS011;35735;52.226;21.254;2023-04-15T07:39:26;6.55;;;4.55;;
44987;SDS011;35735;52.226;21.254;2023-04-15T07:44:26;5.65;;;4.65;;
44987;SDS011;35735;52.226;21.254;2023-04-15T07:49:27;6.07;;;4.80;;
44987;SDS011;35735;52.226;21.254;2023-04-15T07:54:27;5.12;;;4.62;;
44987;SDS011;35735;52.226;21.254;2023-04-15T07:59:28;4.30;;;3.90;;
44987;SDS011;35735;52.226;21.254;2023-04-15T08:04:29;5.28;;;4.40;;
44987;SDS011;35735;52.226;21.254;2023-04-15T08:09:29;4.70;;;4.20;;
44987;SDS011;35735;52.226;21.254;2023-04-15T08:14:30;5.03;;;4.47;;
44987;SDS011;35735;52.226;21.254;2023-04-15T08:19:31;4.70;;;4.00;;
44987;SDS011;35735;52.226;21.254;2023-04-15T08:24:31;4.18;;;3.78;;
44987;SDS011;35735;52.226;21.254;2023-04-15T08:29:32;4.30;;;3.83;;
44987;SDS011;35735;52.226;21.254;2023-04-15T08:34:33;5.85;;;4.72;;
44987;SDS011;35735;52.226;21.254;2023-04-15T08:39:34;4.85;;;3.72;;
44987;SDS011;35735;52.226;21.254;2023-04-15T08:44:35;3.55;;;3.17;;
44987;SDS011;35735;52.226;21.254;2023-04-15T08:49:38;3.65;;;3.22;;
44987;SDS011;35735;52.226;21.254;2023-04-15T08:54:40;3.95;;;3.50;;
44987;SDS011;35735;52.226;21.254;2023-04-15T08:59:42;3.55;;;2.80;;
44987;SDS011;35735;52.226;21.254;2023-04-15T09:04:43;4.03;;;3.30;;
44987;SDS011;35735;52.226;21.254;2023-04-15T09:09:44;3.97;;;3.40;;
44987;SDS011;35735;52.226;21.254;2023-04-15T09:14:45;3.70;;;3.10;;
44987;SDS011;35735;52.226;21.254;2023-04-15T09:19:46;3.67;;;3.10;;
44987;SDS011;35735;52.226;21.254;2023-04-15T09:24:47;4.07;;;2.95;;
44987;SDS011;35735;52.226;21.254;2023-04-15T09:29:49;3.53;;;3.05;;
44987;SDS011;35735;52.226;21.254;2023-04-15T09:34:57;5.10;;;3.15;;
44987;SDS011;35735;52.226;21.254;2023-04-15T09:39:57;3.70;;;3.17;;
44987;SDS011;35735;52.226;21.254;2023-04-15T09:45:16;3.70;;;3.20;;
44987;SDS011;35735;52.226;21.254;2023-04-15T09:50:17;5.00;;;3.40;;
44987;SDS011;35735;52.226;21.254;2023-04-15T09:55:19;3.72;;;3.00;;
44987;SDS011;35735;52.226;21.254;2023-04-15T10:00:19;3.70;;;2.97;;
44987;SDS011;35735;52.226;21.254;2023-04-15T10:05:20;3.47;;;2.90;;
44987;SDS011;35735;52.226;21.254;2023-04-15T10:10:21;3.78;;;3.33;;
44987;SDS011;35735;52.226;21.254;2023-04-15T10:15:21;4.22;;;3.00;;
44987;SDS011;35735;52.226;21.254;2023-04-15T10:20:27;4.93;;;3.35;;
44987;SDS011;35735;52.226;21.254;2023-04-15T10:25:28;5.95;;;3.40;;
44987;SDS011;35735;52.226;21.254;2023-04-15T10:30:29;3.97;;;3.15;;
44987;SDS011;35735;52.226;21.254;2023-04-15T10:35:32;3.35;;;3.05;;
44987;SDS011;35735;52.226;21.254;2023-04-15T10:40:33;3.12;;;2.80;;
44987;SDS011;35735;52.226;21.254;2023-04-15T10:45:35;5.15;;;3.45;;
44987;SDS011;35735;52.226;21.254;2023-04-15T10:50:36;3.85;;;3.30;;
44987;SDS011;35735;52.226;21.254;2023-04-15T10:55:37;3.75;;;3.15;;
44987;SDS011;35735;52.226;21.254;2023-04-15T11:00:37;4.18;;;3.40;;
44987;SDS011;35735;52.226;21.254;2023-04-15T11:15:42;4.13;;;3.20;;
44987;SDS011;35735;52.226;21.254;2023-04-15T11:20:53;2.95;;;2.62;;
44987;SDS011;35735;52.226;21.254;2023-04-15T11:25:56;3.35;;;3.00;;
44987;SDS011;35735;52.226;21.254;2023-04-15T11:30:57;3.42;;;2.87;;
44987;SDS011;35735;52.226;21.254;2023-04-15T11:36:04;4.20;;;3.03;;
44987;SDS011;35735;52.226;21.254;2023-04-15T11:41:05;3.40;;;2.70;;
44987;SDS011;35735;52.226;21.254;2023-04-15T11:46:05;4.53;;;3.03;;
44987;SDS011;35735;52.226;21.254;2023-04-15T11:51:06;3.22;;;2.80;;
44987;SDS011;35735;52.226;21.254;2023-04-15T11:56:08;3.70;;;3.33;;
44987;SDS011;35735;52.226;21.254;2023-04-15T12:01:31;3.58;;;2.97;;
44987;SDS011;35735;52.226;21.254;2023-04-15T12:06:35;3.42;;;3.10;;
44987;SDS011;35735;52.226;21.254;2023-04-15T12:11:36;3.72;;;2.70;;
44987;SDS011;35735;52.226;21.254;2023-04-15T12:16:49;3.20;;;2.20;;
44987;SDS011;35735;52.226;21.254;2023-04-15T12:21:52;4.05;;;3.45;;
44987;SDS011;35735;52.226;21.254;2023-04-15T12:27:00;10.63;;;6.62;;
44987;SDS011;35735;52.226;21.254;2023-04-15T12:32:06;12.05;;;8.23;;
44987;SDS011;35735;52.226;21.254;2023-04-15T12:37:12;5.10;;;3.50;;
44987;SDS011;35735;52.226;21.254;2023-04-15T12:42:13;2.78;;;2.40;;
44987;SDS011;35735;52.226;21.254;2023-04-15T12:47:14;3.45;;;2.40;;
44987;SDS011;35735;52.226;21.254;2023-04-15T12:52:15;3.72;;;2.20;;
44987;SDS011;35735;52.226;21.254;2023-04-15T12:57:15;4.12;;;2.92;;
44987;SDS011;35735;52.226;21.254;2023-04-15T13:02:16;4.30;;;2.50;;
44987;SDS011;35735;52.226;21.254;2023-04-15T13:07:16;5.35;;;3.00;;
44987;SDS011;35735;52.226;21.254;2023-04-15T13:12:17;5.12;;;3.00;;
44987;SDS011;35735;52.226;21.254;2023-04-15T13:17:18;6.12;;;3.62;;
44987;SDS011;35735;52.226;21.254;2023-04-15T13:22:18;4.57;;;2.58;;
44987;SDS011;35735;52.226;21.254;2023-04-15T13:27:19;4.35;;;2.80;;
44987;SDS011;35735;52.226;21.254;2023-04-15T13:32:19;6.30;;;3.47;;
44987;SDS011;35735;52.226;21.254;2023-04-15T13:37:21;7.12;;;3.85;;
44987;SDS011;35735;52.226;21.254;2023-04-15T13:42:29;8.20;;;4.30;;
44987;SDS011;35735;52.226;21.254;2023-04-15T13:47:29;7.05;;;4.60;;
44987;SDS011;35735;52.226;21.254;2023-04-15T13:52:30;3.65;;;2.90;;
44987;SDS011;35735;52.226;21.254;2023-04-15T13:57:31;4.03;;;2.78;;
44987;SDS011;35735;52.226;21.254;2023-04-15T14:02:31;2.72;;;2.20;;
44987;SDS011;35735;52.226;21.254;2023-04-15T14:07:32;3.08;;;2.53;;
44987;SDS011;35735;52.226;21.254;2023-04-15T14:12:33;3.17;;;2.35;;
44987;SDS011;35735;52.226;21.254;2023-04-15T14:17:33;2.85;;;2.10;;
44987;SDS011;35735;52.226;21.254;2023-04-15T14:22:34;3.45;;;2.55;;
44987;SDS011;35735;52.226;21.254;2023-04-15T14:27:34;2.70;;;2.30;;
44987;SDS011;35735;52.226;21.254;2023-04-15T14:32:35;4.68;;;2.55;;
44987;SDS011;35735;52.226;21.254;2023-04-15T14:37:36;3.35;;;2.10;;
44987;SDS011;35735;52.226;21.254;2023-04-15T14:42:36;3.33;;;2.47;;
44987;SDS011;35735;52.226;21.254;2023-04-15T14:47:37;2.97;;;2.15;;
44987;SDS011;35735;52.226;21.254;2023-04-15T14:52:37;2.33;;;1.85;;
44987;SDS011;35735;52.226;21.254;2023-04-15T14:57:39;3.62;;;1.80;;
44987;SDS011;35735;52.226;21.254;2023-04-15T15:02:41;3.22;;;2.22;;
44987;SDS011;35735;52.226;21.254;2023-04-15T15:07:41;3.25;;;2.53;;
44987;SDS011;35735;52.226;21.254;2023-04-15T15:12:42;2.00;;;1.80;;
44987;SDS011;35735;52.226;21.254;2023-04-15T15:17:42;1.90;;;1.70;;
44987;SDS011;35735;52.226;21.254;2023-04-15T15:22:43;2.42;;;1.90;;
44987;SDS011;35735;52.226;21.254;2023-04-15T15:27:43;2.40;;;1.92;;
44987;SDS011;35735;52.226;21.254;2023-04-15T15:32:44;3.15;;;2.12;;
44987;SDS011;35735;52.226;21.254;2023-04-15T15:37:44;3.60;;;2.50;;
44987;SDS011;35735;52.226;21.254;2023-04-15T15:42:45;2.53;;;2.20;;
44987;SDS011;35735;52.226;21.254;2023-04-15T15:47:46;4.45;;;2.85;;
44987;SDS011;35735;52.226;21.254;2023-04-15T15:52:46;3.20;;;2.60;;
44987;SDS011;35735;52.226;21.254;2023-04-15T15:57:47;3.92;;;3.25;;
44987;SDS011;35735;52.226;21.254;2023-04-15T16:02:47;2.87;;;2.35;;
44987;SDS011;35735;52.226;21.254;2023-04-15T16:07:48;2.40;;;2.20;;
44987;SDS011;35735;52.226;21.254;2023-04-15T16:12:48;2.83;;;2.35;;
44987;SDS011;35735;52.226;21.254;2023-04-15T16:17:49;4.95;;;2.78;;
44987;SDS011;35735;52.226;21.254;2023-04-15T16:22:49;3.95;;;2.55;;
44987;SDS011;35735;52.226;21.254;2023-04-15T16:27:50;4.93;;;3.60;;
44987;SDS011;35735;52.226;21.254;2023-04-15T16:32:50;4.85;;;3.15;;
44987;SDS011;35735;52.226;21.254;2023-04-15T16:37:51;2.80;;;2.00;;
44987;SDS011;35735;52.226;21.254;2023-04-15T16:42:52;4.12;;;2.97;;
44987;SDS011;35735;52.226;21.254;2023-04-15T16:47:52;4.93;;;3.20;;
44987;SDS011;35735;52.226;21.254;2023-04-15T16:52:53;3.17;;;2.33;;
44987;SDS011;35735;52.226;21.254;2023-04-15T16:57:54;3.45;;;2.40;;
44987;SDS011;35735;52.226;21.254;2023-04-15T17:02:54;5.18;;;3.40;;
44987;SDS011;35735;52.226;21.254;2023-04-15T17:07:55;4.93;;;3.40;;
44987;SDS011;35735;52.226;21.254;2023-04-15T17:12:56;6.18;;;3.20;;
44987;SDS011;35735;52.226;21.254;2023-04-15T17:17:58;7.03;;;3.70;;
44987;SDS011;35735;52.226;21.254;2023-04-15T17:22:58;4.28;;;3.10;;
44987;SDS011;35735;52.226;21.254;2023-04-15T17:27:59;4.32;;;3.40;;
44987;SDS011;35735;52.226;21.254;2023-04-15T17:33:00;4.65;;;3.20;;
44987;SDS011;35735;52.226;21.254;2023-04-15T17:38:00;4.68;;;2.92;;
44987;SDS011;35735;52.226;21.254;2023-04-15T17:43:01;6.07;;;3.60;;
44987;SDS011;35735;52.226;21.254;2023-04-15T17:48:01;5.93;;;3.55;;
44987;SDS011;35735;52.226;21.254;2023-04-15T17:53:02;6.40;;;2.90;;
44987;SDS011;35735;52.226;21.254;2023-04-15T17:58:03;5.57;;;3.97;;
44987;SDS011;35735;52.226;21.254;2023-04-15T18:03:03;4.53;;;3.00;;
44987;SDS011;35735;52.226;21.254;2023-04-15T18:08:04;5.62;;;3.83;;
44987;SDS011;35735;52.226;21.254;2023-04-15T18:13:05;6.30;;;4.12;;
44987;SDS011;35735;52.226;21.254;2023-04-15T18:18:06;5.65;;;4.45;;
44987;SDS011;35735;52.226;21.254;2023-04-15T18:23:06;5.62;;;3.90;;
44987;SDS011;35735;52.226;21.254;2023-04-15T18:28:10;6.93;;;5.03;;
44987;SDS011;35735;52.226;21.254;2023-04-15T18:33:11;6.47;;;4.30;;
44987;SDS011;35735;52.226;21.254;2023-04-15T18:38:11;6.07;;;3.85;;
44987;SDS011;35735;52.226;21.254;2023-04-15T18:43:12;5.95;;;3.08;;
44987;SDS011;35735;52.226;21.254;2023-04-15T18:48:13;4.93;;;3.30;;
44987;SDS011;35735;52.226;21.254;2023-04-15T18:53:13;4.80;;;3.00;;
44987;SDS011;35735;52.226;21.254;2023-04-15T18:58:14;4.25;;;2.87;;
44987;SDS011;35735;52.226;21.254;2023-04-15T19:03:14;5.03;;;3.50;;
44987;SDS011;35735;52.226;21.254;2023-04-15T19:08:15;4.82;;;3.33;;
44987;SDS011;35735;52.226;21.254;2023-04-15T19:13:16;5.43;;;3.37;;
44987;SDS011;35735;52.226;21.254;2023-04-15T19:18:16;5.35;;;3.42;;
44987;SDS011;35735;52.226;21.254;2023-04-15T19:23:17;4.97;;;3.03;;
44987;SDS011;35735;52.226;21.254;2023-04-15T19:28:17;5.78;;;3.50;;
44987;SDS011;35735;52.226;21.254;2023-04-15T19:33:18;6.32;;;2.90;;
44987;SDS011;35735;52.226;21.254;2023-04-15T19:38:18;5.00;;;3.20;;
44987;SDS011;35735;52.226;21.254;2023-04-15T19:43:19;4.82;;;3.17;;
44987;SDS011;35735;52.226;21.254;2023-04-15T19:48:20;4.90;;;3.30;;
44987;SDS011;35735;52.226;21.254;2023-04-15T19:53:22;3.67;;;3.10;;
44987;SDS011;35735;52.226;21.254;2023-04-15T19:58:22;5.25;;;3.45;;
44987;SDS011;35735;52.226;21.254;2023-04-15T20:03:23;7.43;;;5.00;;
44987;SDS011;35735;52.226;21.254;2023-04-15T20:08:23;5.28;;;3.75;;
44987;SDS011;35735;52.226;21.254;2023-04-15T20:13:24;5.62;;;3.90;;
44987;SDS011;35735;52.226;21.254;2023-04-15T20:18:24;6.35;;;4.90;;
44987;SDS011;35735;52.226;21.254;2023-04-15T20:23:25;7.75;;;5.50;;
44987;SDS011;35735;52.226;21.254;2023-04-15T20:28:26;5.70;;;4.50;;
44987;SDS011;35735;52.226;21.254;2023-04-15T20:33:26;5.80;;;4.00;;
44987;SDS011;35735;52.226;21.254;2023-04-15T20:38:27;6.50;;;4.65;;
44987;SDS011;35735;52.226;21.254;2023-04-15T20:43:27;4.10;;;3.10;;
44987;SDS011;35735;52.226;21.254;2023-04-15T20:48:28;4.37;;;3.45;;
44987;SDS011;35735;52.226;21.254;2023-04-15T20:53:28;3.58;;;2.97;;
44987;SDS011;35735;52.226;21.254;2023-04-15T20:58:29;5.87;;;3.58;;
44987;SDS011;35735;52.226;21.254;2023-04-15T21:03:29;4.30;;;3.45;;
44987;SDS011;35735;52.226;21.254;2023-04-15T21:08:30;5.90;;;3.65;;
44987;SDS011;35735;52.226;21.254;2023-04-15T21:13:31;4.93;;;3.62;;
44987;SDS011;35735;52.226;21.254;2023-04-15T21:18:32;4.45;;;3.25;;
44987;SDS011;35735;52.226;21.254;2023-04-15T21:23:33;14.82;;;9.23;;
44987;SDS011;35735;52.226;21.254;2023-04-15T21:28:34;7.07;;;4.12;;
44987;SDS011;35735;52.226;21.254;2023-04-15T21:33:34;5.03;;;3.85;;
44987;SDS011;35735;52.226;21.254;2023-04-15T21:38:35;4.47;;;3.28;;
44987;SDS011;35735;52.226;21.254;2023-04-15T21:43:36;4.32;;;3.50;;
44987;SDS011;35735;52.226;21.254;2023-04-15T21:48:36;4.55;;;3.12;;
44987;SDS011;35735;52.226;21.254;2023-04-15T21:53:37;4.03;;;3.33;;
44987;SDS011;35735;52.226;21.254;2023-04-15T21:58:38;5.55;;;3.58;;
44987;SDS011;35735;52.226;21.254;2023-04-15T22:03:39;3.67;;;2.85;;
44987;SDS011;35735;52.226;21.254;2023-04-15T22:08:39;3.53;;;3.00;;
44987;SDS011;35735;52.226;21.254;2023-04-15T22:13:40;4.28;;;3.10;;
44987;SDS011;35735;52.226;21.254;2023-04-15T22:18:41;4.60;;;2.92;;
44987;SDS011;35735;52.226;21.254;2023-04-15T22:23:44;4.93;;;3.25;;
44987;SDS011;35735;52.226;21.254;2023-04-15T22:28:45;5.18;;;3.40;;
44987;SDS011;35735;52.226;21.254;2023-04-15T22:33:46;3.95;;;3.00;;
44987;SDS011;35735;52.226;21.254;2023-04-15T22:38:47;4.75;;;3.35;;
44987;SDS011;35735;52.226;21.254;2023-04-15T22:43:47;3.50;;;3.20;;
44987;SDS011;35735;52.226;21.254;2023-04-15T22:48:48;5.22;;;3.10;;
44987;SDS011;35735;52.226;21.254;2023-04-15T22:53:49;4.32;;;3.33;;
44987;SDS011;35735;52.226;21.254;2023-04-15T22:58:49;3.80;;;3.00;;
44987;SDS011;35735;52.226;21.254;2023-04-15T23:03:50;4.35;;;3.45;;
44987;SDS011;35735;52.226;21.254;2023-04-15T23:08:51;5.32;;;3.65;;
44987;SDS011;35735;52.226;21.254;2023-04-15T23:13:52;4.10;;;3.30;;
44987;SDS011;35735;52.226;21.254;2023-04-15T23:18:53;3.92;;;3.35;;
44987;SDS011;35735;52.226;21.254;2023-04-15T23:23:53;4.68;;;3.58;;
44987;SDS011;35735;52.226;21.254;2023-04-15T23:28:54;7.47;;;4.18;;
44987;SDS011;35735;52.226;21.254;2023-04-15T23:33:55;5.62;;;3.87;;
44987;SDS011;35735;52.226;21.254;2023-04-15T23:38:55;5.22;;;4.35;;
44987;SDS011;35735;52.226;21.254;2023-04-15T23:43:56;4.45;;;3.50;;
44987;SDS011;35735;52.226;21.254;2023-04-15T23:48:56;4.82;;;3.53;;
44987;SDS011;35735;52.226;21.254;2023-04-15T23:53:57;4.53;;;3.50;;
44987;SDS011;35735;52.226;21.254;2023-04-15T23:58:58;4.18;;;3.20;;
